sensor_id;sensor_type;location;lat;lon;timestamp;pressure;altitude;pressure_sealevel;temperature;humidity
30554;BME280;17335;50.720;7.452;2024-03-22T00:00:39;99947.84;;;9.25;100.00
30554;BME280;17335;50.720;7.452;2024-03-22T00:03:04;99950.19;;;9.41;100.00
30554;BME280;17335;50.720;7.452;2024-03-22T00:05:30;99950.41;;;9.26;100.00
30554;BME280;17335;50.720;7.452;2024-03-22T00:07:55;99957.75;;;9.35;100.00
30554;BME280;17335;50.720;7.452;2024-03-22T00:10:21;99948.97;;;9.22;100.00
30554;BME280;17335;50.720;7.452;2024-03-22T00:12:46;99950.66;;;9.12;100.00
30554;BME280;17335;50.720;7.452;2024-03-22T00:15:14;99951.25;;;9.04;100.00
30554;BME280;17335;50.720;7.452;2024-03-22T00:17:39;99951.03;;;9.07;100.00
30554;BME280;17335;50.720;7.452;2024-03-22T00:20:05;99951.41;;;9.03;100.00
30554;BME280;17335;50.720;7.452;2024-03-22T00:22:31;99951.50;;;9.01;100.00
30554;BME280;17335;50.720;7.452;2024-03-22T00:24:56;99943.22;;;8.93;100.00
30554;BME280;17335;50.720;7.452;2024-03-22T00:27:22;99939.06;;;8.89;100.00
30554;BME280;17335;50.720;7.452;2024-03-22T00:29:47;99938.44;;;8.85;100.00
30554;BME280;17335;50.720;7.452;2024-03-22T00:32:13;99927.75;;;8.85;100.00
30554;BME280;17335;50.720;7.452;2024-03-22T00:34:39;99929.47;;;8.86;100.00
30554;BME280;17335;50.720;7.452;2024-03-22T00:37:04;99925.56;;;8.79;100.00
30554;BME280;17335;50.720;7.452;2024-03-22T00:39:30;99931.50;;;8.71;100.00
30554;BME280;17335;50.720;7.452;2024-03-22T00:41:55;99926.75;;;8.63;100.00
30554;BME280;17335;50.720;7.452;2024-03-22T00:44:21;99930.25;;;8.64;100.00
30554;BME280;17335;50.720;7.452;2024-03-22T00:46:46;99928.56;;;8.63;100.00
30554;BME280;17335;50.720;7.452;2024-03-22T00:49:12;99925.28;;;8.71;100.00
30554;BME280;17335;50.720;7.452;2024-03-22T00:51:38;99921.28;;;8.76;100.00
30554;BME280;17335;50.720;7.452;2024-03-22T00:54:03;99918.03;;;8.84;100.00
30554;BME280;17335;50.720;7.452;2024-03-22T00:56:29;99911.94;;;8.82;100.00
30554;BME280;17335;50.720;7.452;2024-03-22T00:58:54;99899.03;;;8.87;100.00
30554;BME280;17335;50.720;7.452;2024-03-22T01:01:20;99900.50;;;8.91;100.00
30554;BME280;17335;50.720;7.452;2024-03-22T01:03:45;99901.94;;;8.95;100.00
30554;BME280;17335;50.720;7.452;2024-03-22T01:06:11;99893.56;;;9.11;100.00
30554;BME280;17335;50.720;7.452;2024-03-22T01:08:36;99888.56;;;9.07;100.00
30554;BME280;17335;50.720;7.452;2024-03-22T01:11:02;99890.03;;;9.11;100.00
30554;BME280;17335;50.720;7.452;2024-03-22T01:13:28;99877.38;;;9.13;100.00
30554;BME280;17335;50.720;7.452;2024-03-22T01:15:53;99884.31;;;9.15;100.00
30554;BME280;17335;50.720;7.452;2024-03-22T01:18:19;99870.44;;;9.10;100.00
30554;BME280;17335;50.720;7.452;2024-03-22T01:20:44;99870.78;;;9.06;100.00
30554;BME280;17335;50.720;7.452;2024-03-22T01:23:10;99871.91;;;9.03;100.00
30554;BME280;17335;50.720;7.452;2024-03-22T01:25:35;99882.63;;;9.03;100.00
30554;BME280;17335;50.720;7.452;2024-03-22T01:28:01;99875.94;;;8.97;100.00
30554;BME280;17335;50.720;7.452;2024-03-22T01:30:26;99871.16;;;8.90;100.00
30554;BME280;17335;50.720;7.452;2024-03-22T01:32:55;99873.97;;;8.99;100.00
30554;BME280;17335;50.720;7.452;2024-03-22T01:35:21;99870.78;;;8.83;100.00
30554;BME280;17335;50.720;7.452;2024-03-22T01:37:47;99867.63;;;8.89;100.00
30554;BME280;17335;50.720;7.452;2024-03-22T01:40:13;99866.41;;;8.82;100.00
30554;BME280;17335;50.720;7.452;2024-03-22T01:42:38;99863.97;;;8.79;100.00
30554;BME280;17335;50.720;7.452;2024-03-22T01:45:04;99866.16;;;8.74;100.00
30554;BME280;17335;50.720;7.452;2024-03-22T01:47:30;99860.22;;;8.70;100.00
30554;BME280;17335;50.720;7.452;2024-03-22T01:49:56;99855.22;;;8.77;100.00
30554;BME280;17335;50.720;7.452;2024-03-22T01:52:22;99857.53;;;8.70;100.00
30554;BME280;17335;50.720;7.452;2024-03-22T01:54:49;99850.56;;;8.68;100.00
30554;BME280;17335;50.720;7.452;2024-03-22T01:57:14;99854.94;;;8.57;100.00
30554;BME280;17335;50.720;7.452;2024-03-22T01:59:41;99848.97;;;8.54;100.00
30554;BME280;17335;50.720;7.452;2024-03-22T02:07:30;99843.00;;;8.50;100.00
30554;BME280;17335;50.720;7.452;2024-03-22T02:09:56;99836.09;;;8.59;100.00
30554;BME280;17335;50.720;7.452;2024-03-22T02:12:22;99826.72;;;8.53;100.00
30554;BME280;17335;50.720;7.452;2024-03-22T02:14:48;99825.38;;;8.59;100.00
30554;BME280;17335;50.720;7.452;2024-03-22T02:17:13;99823.31;;;8.62;100.00
30554;BME280;17335;50.720;7.452;2024-03-22T02:19:39;99824.41;;;8.49;100.00
30554;BME280;17335;50.720;7.452;2024-03-22T02:22:05;99815.47;;;8.37;100.00
30554;BME280;17335;50.720;7.452;2024-03-22T02:24:30;99815.47;;;8.37;100.00
30554;BME280;17335;50.720;7.452;2024-03-22T02:26:56;99811.53;;;8.42;100.00
30554;BME280;17335;50.720;7.452;2024-03-22T02:29:21;99806.31;;;8.63;100.00
30554;BME280;17335;50.720;7.452;2024-03-22T02:31:46;99794.84;;;8.50;100.00
30554;BME280;17335;50.720;7.452;2024-03-22T02:34:12;99787.44;;;8.54;100.00
30554;BME280;17335;50.720;7.452;2024-03-22T02:36:38;99785.97;;;8.61;100.00
30554;BME280;17335;50.720;7.452;2024-03-22T02:39:03;99785.00;;;8.62;100.00
30554;BME280;17335;50.720;7.452;2024-03-22T02:41:29;99786.72;;;8.63;100.00
30554;BME280;17335;50.720;7.452;2024-03-22T02:43:56;99786.09;;;8.59;100.00
30554;BME280;17335;50.720;7.452;2024-03-22T02:46:21;99776.13;;;8.73;100.00
30554;BME280;17335;50.720;7.452;2024-03-22T02:48:48;99770.66;;;8.74;100.00
30554;BME280;17335;50.720;7.452;2024-03-22T02:51:14;99770.28;;;8.79;100.00
30554;BME280;17335;50.720;7.452;2024-03-22T02:53:39;99765.53;;;8.82;100.00
30554;BME280;17335;50.720;7.452;2024-03-22T02:56:05;99764.22;;;8.77;100.00
30554;BME280;17335;50.720;7.452;2024-03-22T02:58:30;99763.47;;;8.75;100.00
30554;BME280;17335;50.720;7.452;2024-03-22T03:00:56;99756.41;;;8.74;100.00
30554;BME280;17335;50.720;7.452;2024-03-22T03:03:22;99755.19;;;8.78;100.00
30554;BME280;17335;50.720;7.452;2024-03-22T03:05:49;99750.31;;;8.94;100.00
30554;BME280;17335;50.720;7.452;2024-03-22T03:08:14;99752.00;;;8.95;100.00
30554;BME280;17335;50.720;7.452;2024-03-22T03:10:40;99745.69;;;8.85;100.00
30554;BME280;17335;50.720;7.452;2024-03-22T03:13:05;99747.38;;;8.97;100.00
30554;BME280;17335;50.720;7.452;2024-03-22T03:15:31;99741.28;;;8.95;100.00
30554;BME280;17335;50.720;7.452;2024-03-22T03:17:57;99729.84;;;9.05;100.00
30554;BME280;17335;50.720;7.452;2024-03-22T03:20:22;99732.03;;;8.99;100.00
30554;BME280;17335;50.720;7.452;2024-03-22T03:22:48;99729.59;;;9.08;100.00
30554;BME280;17335;50.720;7.452;2024-03-22T03:25:13;99722.53;;;9.07;100.00
30554;BME280;17335;50.720;7.452;2024-03-22T03:27:39;99724.25;;;9.08;100.00
30554;BME280;17335;50.720;7.452;2024-03-22T03:30:05;99724.25;;;9.08;100.00
30554;BME280;17335;50.720;7.452;2024-03-22T03:32:31;99725.91;;;9.09;100.00
30554;BME280;17335;50.720;7.452;2024-03-22T03:34:56;99723.97;;;9.11;100.00
30554;BME280;17335;50.720;7.452;2024-03-22T03:37:22;99720.06;;;9.15;100.00
30554;BME280;17335;50.720;7.452;2024-03-22T03:39:47;99717.16;;;9.18;100.00
30554;BME280;17335;50.720;7.452;2024-03-22T03:42:13;99725.50;;;9.25;100.00
30554;BME280;17335;50.720;7.452;2024-03-22T03:44:39;99707.88;;;9.22;100.00
30554;BME280;17335;50.720;7.452;2024-03-22T03:47:04;99712.22;;;9.23;100.00
30554;BME280;17335;50.720;7.452;2024-03-22T03:49:30;99712.22;;;9.23;100.00
30554;BME280;17335;50.720;7.452;2024-03-22T03:51:55;99711.03;;;9.27;100.00
30554;BME280;17335;50.720;7.452;2024-03-22T03:54:21;99710.31;;;9.25;100.00
30554;BME280;17335;50.720;7.452;2024-03-22T03:56:46;99706.38;;;9.29;100.00
30554;BME280;17335;50.720;7.452;2024-03-22T03:59:12;99712.91;;;9.36;100.00
30554;BME280;17335;50.720;7.452;2024-03-22T04:01:37;99704.53;;;9.30;100.00
30554;BME280;17335;50.720;7.452;2024-03-22T04:04:03;99705.13;;;9.33;100.00
30554;BME280;17335;50.720;7.452;2024-03-22T04:06:29;99704.38;;;9.43;100.00
30554;BME280;17335;50.720;7.452;2024-03-22T04:08:55;99706.97;;;9.33;100.00
30554;BME280;17335;50.720;7.452;2024-03-22T04:11:20;99702.19;;;9.36;100.00
30554;BME280;17335;50.720;7.452;2024-03-22T04:13:46;99693.44;;;9.34;100.00
30554;BME280;17335;50.720;7.452;2024-03-22T04:16:12;99703.06;;;9.37;100.00
30554;BME280;17335;50.720;7.452;2024-03-22T04:18:38;99698.03;;;9.44;100.00
30554;BME280;17335;50.720;7.452;2024-03-22T04:21:04;99697.06;;;9.45;100.00
30554;BME280;17335;50.720;7.452;2024-03-22T04:23:30;99697.19;;;9.43;100.00
30554;BME280;17335;50.720;7.452;2024-03-22T04:25:59;99702.28;;;9.46;100.00
30554;BME280;17335;50.720;7.452;2024-03-22T04:28:26;99695.50;;;9.42;100.00
30554;BME280;17335;50.720;7.452;2024-03-22T04:31:08;99708.75;;;9.44;100.00
30554;BME280;17335;50.720;7.452;2024-03-22T04:33:35;99701.44;;;9.46;100.00
30554;BME280;17335;50.720;7.452;2024-03-22T04:36:01;99694.97;;;9.48;100.00
30554;BME280;17335;50.720;7.452;2024-03-22T04:38:28;99696.81;;;9.48;100.00
30554;BME280;17335;50.720;7.452;2024-03-22T04:40:54;99695.22;;;9.45;100.00
30554;BME280;17335;50.720;7.452;2024-03-22T04:43:20;99690.19;;;9.52;100.00
30554;BME280;17335;50.720;7.452;2024-03-22T04:45:46;99695.22;;;9.45;100.00
30554;BME280;17335;50.720;7.452;2024-03-22T04:48:14;99686.09;;;9.48;100.00
30554;BME280;17335;50.720;7.452;2024-03-22T04:50:40;99686.22;;;9.46;100.00
30554;BME280;17335;50.720;7.452;2024-03-22T04:53:06;99676.22;;;9.48;100.00
30554;BME280;17335;50.720;7.452;2024-03-22T04:55:32;99667.56;;;9.45;100.00
30554;BME280;17335;50.720;7.452;2024-03-22T04:58:01;99675.13;;;9.51;100.00
30554;BME280;17335;50.720;7.452;2024-03-22T05:00:28;99669.34;;;9.55;100.00
30554;BME280;17335;50.720;7.452;2024-03-22T05:02:54;99675.00;;;9.52;100.00
30554;BME280;17335;50.720;7.452;2024-03-22T05:05:20;99671.91;;;9.57;100.00
30554;BME280;17335;50.720;7.452;2024-03-22T05:07:46;99668.28;;;9.47;100.00
30554;BME280;17335;50.720;7.452;2024-03-22T05:10:12;99670.47;;;9.53;100.00
30554;BME280;17335;50.720;7.452;2024-03-22T05:12:37;99658.03;;;9.52;100.00
30554;BME280;17335;50.720;7.452;2024-03-22T05:15:03;99660.13;;;9.48;100.00
30554;BME280;17335;50.720;7.452;2024-03-22T05:17:30;99662.47;;;9.42;100.00
30554;BME280;17335;50.720;7.452;2024-03-22T05:20:00;99658.28;;;9.49;100.00
30554;BME280;17335;50.720;7.452;2024-03-22T05:22:26;99654.19;;;9.45;100.00
30554;BME280;17335;50.720;7.452;2024-03-22T05:24:51;99654.31;;;9.43;100.00
30554;BME280;17335;50.720;7.452;2024-03-22T05:27:17;99644.31;;;9.45;100.00
30554;BME280;17335;50.720;7.452;2024-03-22T05:29:43;99632.78;;;9.33;100.00
30554;BME280;17335;50.720;7.452;2024-03-22T05:32:08;99638.78;;;9.37;100.00
30554;BME280;17335;50.720;7.452;2024-03-22T05:34:34;99635.69;;;9.42;100.00
30554;BME280;17335;50.720;7.452;2024-03-22T05:37:01;99640.13;;;9.31;100.00
30554;BME280;17335;50.720;7.452;2024-03-22T05:39:27;99636.59;;;9.31;100.00
30554;BME280;17335;50.720;7.452;2024-03-22T05:41:52;99635.16;;;9.27;100.00
30554;BME280;17335;50.720;7.452;2024-03-22T05:44:21;99640.25;;;9.30;100.00
30554;BME280;17335;50.720;7.452;2024-03-22T05:46:47;99630.84;;;9.35;100.00
30554;BME280;17335;50.720;7.452;2024-03-22T05:49:12;99631.81;;;9.34;100.00
30554;BME280;17335;50.720;7.452;2024-03-22T05:51:38;99637.66;;;9.39;100.00
30554;BME280;17335;50.720;7.452;2024-03-22T05:54:04;99631.31;;;9.41;100.00
30554;BME280;17335;50.720;7.452;2024-03-22T05:56:29;99626.53;;;9.44;100.00
30554;BME280;17335;50.720;7.452;2024-03-22T05:58:55;99627.72;;;9.51;100.00
30554;BME280;17335;50.720;7.452;2024-03-22T06:01:20;99624.19;;;9.51;100.00
30554;BME280;17335;50.720;7.452;2024-03-22T06:03:46;99622.81;;;9.56;100.00
30554;BME280;17335;50.720;7.452;2024-03-22T06:06:11;99621.97;;;9.56;100.00
30554;BME280;17335;50.720;7.452;2024-03-22T06:08:37;99618.03;;;9.60;100.00
30554;BME280;17335;50.720;7.452;2024-03-22T06:11:07;99616.06;;;9.62;100.00
30554;BME280;17335;50.720;7.452;2024-03-22T06:13:33;99618.03;;;9.60;100.00
30554;BME280;17335;50.720;7.452;2024-03-22T06:15:58;99608.22;;;9.70;100.00
30554;BME280;17335;50.720;7.452;2024-03-22T06:18:24;99606.50;;;9.69;100.00
30554;BME280;17335;50.720;7.452;2024-03-22T06:20:49;99603.31;;;9.75;100.00
30554;BME280;17335;50.720;7.452;2024-03-22T06:23:15;99607.34;;;9.91;100.00
30554;BME280;17335;50.720;7.452;2024-03-22T06:25:41;99605.91;;;9.87;100.00
30554;BME280;17335;50.720;7.452;2024-03-22T06:28:06;99606.63;;;9.89;100.00
30554;BME280;17335;50.720;7.452;2024-03-22T06:30:32;99601.72;;;9.94;100.00
30554;BME280;17335;50.720;7.452;2024-03-22T06:32:57;99596.59;;;9.91;100.00
30554;BME280;17335;50.720;7.452;2024-03-22T06:35:23;99594.38;;;9.96;100.00
30554;BME280;17335;50.720;7.452;2024-03-22T06:37:49;99590.28;;;9.92;100.00
30554;BME280;17335;50.720;7.452;2024-03-22T06:40:16;99587.75;;;10.00;100.00
30554;BME280;17335;50.720;7.452;2024-03-22T06:42:41;99590.16;;;10.03;100.00
30554;BME280;17335;50.720;7.452;2024-03-22T06:45:07;99592.84;;;10.03;100.00
30554;BME280;17335;50.720;7.452;2024-03-22T06:47:33;99583.97;;;10.12;100.00
30554;BME280;17335;50.720;7.452;2024-03-22T06:49:58;99588.63;;;10.10;100.00
30554;BME280;17335;50.720;7.452;2024-03-22T06:52:24;99587.53;;;10.13;100.00
30554;BME280;17335;50.720;7.452;2024-03-22T06:54:50;99584.97;;;10.11;100.00
30554;BME280;17335;50.720;7.452;2024-03-22T06:57:15;99587.53;;;10.23;100.00
30554;BME280;17335;50.720;7.452;2024-03-22T06:59:41;99587.41;;;10.24;100.00
30554;BME280;17335;50.720;7.452;2024-03-22T07:02:06;99577.09;;;10.20;100.00
30554;BME280;17335;50.720;7.452;2024-03-22T07:04:35;99577.53;;;10.25;100.00
30554;BME280;17335;50.720;7.452;2024-03-22T07:07:00;99578.38;;;10.25;100.00
30554;BME280;17335;50.720;7.452;2024-03-22T07:09:26;99570.66;;;10.32;100.00
30554;BME280;17335;50.720;7.452;2024-03-22T07:11:54;99575.56;;;10.27;100.00
30554;BME280;17335;50.720;7.452;2024-03-22T07:14:19;99572.78;;;10.38;100.00
30554;BME280;17335;50.720;7.452;2024-03-22T07:16:45;99570.41;;;10.45;100.00
30554;BME280;17335;50.720;7.452;2024-03-22T07:19:11;99572.69;;;10.49;100.00
30554;BME280;17335;50.720;7.452;2024-03-22T07:21:37;99582.00;;;10.55;100.00
30554;BME280;17335;50.720;7.452;2024-03-22T07:24:04;99574.50;;;10.59;100.00
30554;BME280;17335;50.720;7.452;2024-03-22T07:26:29;99569.16;;;10.59;100.00
30554;BME280;17335;50.720;7.452;2024-03-22T07:28:55;99580.03;;;10.67;100.00
30554;BME280;17335;50.720;7.452;2024-03-22T07:31:21;99568.72;;;10.63;100.00
30554;BME280;17335;50.720;7.452;2024-03-22T07:33:48;99573.25;;;10.63;100.00
30554;BME280;17335;50.720;7.452;2024-03-22T07:36:15;99574.53;;;10.68;100.00
30554;BME280;17335;50.720;7.452;2024-03-22T07:38:41;99571.97;;;10.67;100.00
30554;BME280;17335;50.720;7.452;2024-03-22T07:41:07;99573.13;;;10.64;100.00
30554;BME280;17335;50.720;7.452;2024-03-22T07:43:33;99560.81;;;10.62;100.00
30554;BME280;17335;50.720;7.452;2024-03-22T07:45:58;99564.78;;;10.67;100.00
30554;BME280;17335;50.720;7.452;2024-03-22T07:48:24;99565.06;;;10.64;100.00
30554;BME280;17335;50.720;7.452;2024-03-22T07:50:56;99559.69;;;10.74;100.00
30554;BME280;17335;50.720;7.452;2024-03-22T07:53:22;99545.00;;;10.98;100.00
30554;BME280;17335;50.720;7.452;2024-03-22T07:55:48;99547.22;;;11.12;100.00
30554;BME280;17335;50.720;7.452;2024-03-22T07:58:13;99533.50;;;11.35;100.00
30554;BME280;17335;50.720;7.452;2024-03-22T08:00:39;99531.59;;;11.55;100.00
30554;BME280;17335;50.720;7.452;2024-03-22T08:03:04;99531.41;;;11.76;100.00
30554;BME280;17335;50.720;7.452;2024-03-22T08:05:30;99535.09;;;12.03;100.00
30554;BME280;17335;50.720;7.452;2024-03-22T08:07:56;99535.16;;;12.21;100.00
30554;BME280;17335;50.720;7.452;2024-03-22T08:10:21;99529.22;;;12.45;100.00
30554;BME280;17335;50.720;7.452;2024-03-22T08:12:47;99526.50;;;12.63;100.00
30554;BME280;17335;50.720;7.452;2024-03-22T08:15:12;99528.34;;;12.80;100.00
30554;BME280;17335;50.720;7.452;2024-03-22T08:17:38;99510.63;;;12.95;100.00
30554;BME280;17335;50.720;7.452;2024-03-22T08:20:04;99517.63;;;13.06;100.00
30554;BME280;17335;50.720;7.452;2024-03-22T08:22:31;99509.97;;;13.20;100.00
30554;BME280;17335;50.720;7.452;2024-03-22T08:24:56;99503.66;;;13.29;100.00
30554;BME280;17335;50.720;7.452;2024-03-22T08:27:22;99511.44;;;13.32;100.00
30554;BME280;17335;50.720;7.452;2024-03-22T08:29:47;99507.81;;;13.23;100.00
30554;BME280;17335;50.720;7.452;2024-03-22T08:32:13;99506.41;;;13.37;100.00
30554;BME280;17335;50.720;7.452;2024-03-22T08:34:38;99499.78;;;13.49;100.00
30554;BME280;17335;50.720;7.452;2024-03-22T08:37:04;99503.16;;;13.52;100.00
30554;BME280;17335;50.720;7.452;2024-03-22T08:39:30;99493.56;;;13.57;100.00
30554;BME280;17335;50.720;7.452;2024-03-22T08:41:55;99489.38;;;13.63;100.00
30554;BME280;17335;50.720;7.452;2024-03-22T08:44:21;99481.94;;;13.57;100.00
30554;BME280;17335;50.720;7.452;2024-03-22T08:46:47;99472.69;;;13.67;100.00
30554;BME280;17335;50.720;7.452;2024-03-22T08:49:12;99471.28;;;13.90;100.00
30554;BME280;17335;50.720;7.452;2024-03-22T08:51:39;99472.19;;;14.15;100.00
30554;BME280;17335;50.720;7.452;2024-03-22T08:54:05;99454.84;;;14.42;100.00
30554;BME280;17335;50.720;7.452;2024-03-22T08:56:30;99460.31;;;14.58;100.00
30554;BME280;17335;50.720;7.452;2024-03-22T08:58:56;99456.59;;;14.76;100.00
30554;BME280;17335;50.720;7.452;2024-03-22T09:01:21;99459.66;;;14.89;100.00
30554;BME280;17335;50.720;7.452;2024-03-22T09:03:47;99444.44;;;15.05;100.00
30554;BME280;17335;50.720;7.452;2024-03-22T09:06:16;99442.03;;;15.18;100.00
30554;BME280;17335;50.720;7.452;2024-03-22T09:08:42;99443.72;;;15.11;100.00
30554;BME280;17335;50.720;7.452;2024-03-22T09:11:07;99445.94;;;15.07;100.00
30554;BME280;17335;50.720;7.452;2024-03-22T09:13:33;99432.78;;;14.79;100.00
30554;BME280;17335;50.720;7.452;2024-03-22T09:16:01;99429.09;;;14.89;100.00
30554;BME280;17335;50.720;7.452;2024-03-22T09:18:27;99439.72;;;14.82;100.00
30554;BME280;17335;50.720;7.452;2024-03-22T09:20:53;99437.03;;;14.74;100.00
30554;BME280;17335;50.720;7.452;2024-03-22T09:23:19;99436.19;;;14.73;100.00
30554;BME280;17335;50.720;7.452;2024-03-22T09:25:45;99433.28;;;14.75;100.00
30554;BME280;17335;50.720;7.452;2024-03-22T09:28:11;99433.28;;;14.91;100.00
30554;BME280;17335;50.720;7.452;2024-03-22T09:30:38;99425.69;;;14.87;100.00
30554;BME280;17335;50.720;7.452;2024-03-22T09:33:05;99419.78;;;14.91;100.00
30554;BME280;17335;50.720;7.452;2024-03-22T09:35:30;99423.97;;;14.94;100.00
30554;BME280;17335;50.720;7.452;2024-03-22T09:37:56;99426.50;;;15.04;100.00
30554;BME280;17335;50.720;7.452;2024-03-22T09:40:22;99414.13;;;15.26;100.00
30554;BME280;17335;50.720;7.452;2024-03-22T09:42:48;99412.88;;;15.45;100.00
30554;BME280;17335;50.720;7.452;2024-03-22T09:45:15;99415.22;;;15.56;100.00
30554;BME280;17335;50.720;7.452;2024-03-22T09:47:44;99417.22;;;15.62;100.00
30554;BME280;17335;50.720;7.452;2024-03-22T09:50:11;99419.72;;;15.72;100.00
30554;BME280;17335;50.720;7.452;2024-03-22T09:52:38;99410.44;;;15.66;100.00
30554;BME280;17335;50.720;7.452;2024-03-22T09:55:07;99409.13;;;15.54;100.00
30554;BME280;17335;50.720;7.452;2024-03-22T09:57:37;99407.13;;;15.48;100.00
30554;BME280;17335;50.720;7.452;2024-03-22T10:00:06;99406.81;;;15.34;100.00
30554;BME280;17335;50.720;7.452;2024-03-22T10:02:33;99409.94;;;15.23;100.00
30554;BME280;17335;50.720;7.452;2024-03-22T10:05:00;99409.28;;;15.13;100.00
30554;BME280;17335;50.720;7.452;2024-03-22T10:07:28;99414.31;;;15.16;100.00
30554;BME280;17335;50.720;7.452;2024-03-22T10:09:57;99404.38;;;15.08;100.00
30554;BME280;17335;50.720;7.452;2024-03-22T10:12:23;99399.44;;;15.20;100.00
30554;BME280;17335;50.720;7.452;2024-03-22T10:14:52;99397.84;;;15.42;100.00
30554;BME280;17335;50.720;7.452;2024-03-22T10:17:19;99391.88;;;15.55;100.00
30554;BME280;17335;50.720;7.452;2024-03-22T10:19:45;99395.53;;;15.70;100.00
30554;BME280;17335;50.720;7.452;2024-03-22T10:22:10;99392.81;;;15.79;100.00
30554;BME280;17335;50.720;7.452;2024-03-22T10:24:36;99390.81;;;15.64;100.00
30554;BME280;17335;50.720;7.452;2024-03-22T10:27:01;99383.06;;;15.61;100.00
30554;BME280;17335;50.720;7.452;2024-03-22T10:29:27;99382.88;;;15.63;100.00
30554;BME280;17335;50.720;7.452;2024-03-22T10:31:54;99381.81;;;15.72;100.00
30554;BME280;17335;50.720;7.452;2024-03-22T10:34:24;99379.31;;;15.62;100.00
30554;BME280;17335;50.720;7.452;2024-03-22T10:36:49;99377.88;;;15.83;100.00
30554;BME280;17335;50.720;7.452;2024-03-22T10:39:17;99366.84;;;15.92;100.00
30554;BME280;17335;50.720;7.452;2024-03-22T10:41:46;99370.69;;;15.98;100.00
30554;BME280;17335;50.720;7.452;2024-03-22T10:44:13;99364.94;;;16.01;100.00
30554;BME280;17335;50.720;7.452;2024-03-22T10:46:49;99357.59;;;15.87;100.00
30554;BME280;17335;50.720;7.452;2024-03-22T10:49:19;99362.03;;;16.03;100.00
30554;BME280;17335;50.720;7.452;2024-03-22T10:51:52;99352.97;;;15.96;100.00
30554;BME280;17335;50.720;7.452;2024-03-22T10:54:26;99349.16;;;15.82;100.00
30554;BME280;17335;50.720;7.452;2024-03-22T10:56:53;99354.09;;;15.70;100.00
30554;BME280;17335;50.720;7.452;2024-03-22T10:59:20;99343.44;;;15.77;100.00
30554;BME280;17335;50.720;7.452;2024-03-22T11:01:47;99350.97;;;15.89;100.00
30554;BME280;17335;50.720;7.452;2024-03-22T11:04:15;99345.06;;;15.86;100.00
30554;BME280;17335;50.720;7.452;2024-03-22T11:06:47;99342.41;;;15.69;100.00
30554;BME280;17335;50.720;7.452;2024-03-22T11:09:21;99345.00;;;15.63;100.00
30554;BME280;17335;50.720;7.452;2024-03-22T11:11:47;99343.97;;;15.64;100.00
30554;BME280;17335;50.720;7.452;2024-03-22T11:14:12;99328.03;;;15.69;100.00
30554;BME280;17335;50.720;7.452;2024-03-22T11:16:38;99327.88;;;15.70;100.00
30554;BME280;17335;50.720;7.452;2024-03-22T11:19:04;99315.66;;;15.74;100.00
30554;BME280;17335;50.720;7.452;2024-03-22T11:21:32;99329.78;;;15.93;100.00
30554;BME280;17335;50.720;7.452;2024-03-22T11:24:00;99312.88;;;15.91;100.00
30554;BME280;17335;50.720;7.452;2024-03-22T11:26:26;99313.13;;;16.04;100.00
30554;BME280;17335;50.720;7.452;2024-03-22T11:28:51;99302.28;;;16.04;100.00
30554;BME280;17335;50.720;7.452;2024-03-22T11:31:17;99286.47;;;16.16;100.00
30554;BME280;17335;50.720;7.452;2024-03-22T11:33:45;99290.94;;;16.24;100.00
30554;BME280;17335;50.720;7.452;2024-03-22T11:36:11;99293.88;;;16.37;100.00
30554;BME280;17335;50.720;7.452;2024-03-22T11:38:36;99285.81;;;16.29;100.00
30554;BME280;17335;50.720;7.452;2024-03-22T11:41:02;99287.59;;;15.99;100.00
30554;BME280;17335;50.720;7.452;2024-03-22T11:43:29;99287.28;;;15.93;100.00
30554;BME280;17335;50.720;7.452;2024-03-22T11:45:55;99287.81;;;15.97;100.00
30554;BME280;17335;50.720;7.452;2024-03-22T11:48:21;99277.75;;;16.06;100.00
30554;BME280;17335;50.720;7.452;2024-03-22T11:50:48;99268.75;;;16.05;100.00
30554;BME280;17335;50.720;7.452;2024-03-22T11:53:16;99280.66;;;16.19;100.00
30554;BME280;17335;50.720;7.452;2024-03-22T11:55:41;99268.84;;;16.35;100.00
30554;BME280;17335;50.720;7.452;2024-03-22T11:58:12;99261.19;;;16.39;100.00
30554;BME280;17335;50.720;7.452;2024-03-22T12:00:38;99257.09;;;16.73;100.00
30554;BME280;17335;50.720;7.452;2024-03-22T12:03:04;99255.63;;;17.00;100.00
30554;BME280;17335;50.720;7.452;2024-03-22T12:05:31;99250.91;;;17.23;100.00
30554;BME280;17335;50.720;7.452;2024-03-22T12:07:57;99247.47;;;17.30;100.00
30554;BME280;17335;50.720;7.452;2024-03-22T12:10:22;99247.94;;;17.03;100.00
30554;BME280;17335;50.720;7.452;2024-03-22T12:12:48;99238.88;;;16.96;100.00
30554;BME280;17335;50.720;7.452;2024-03-22T12:15:14;99234.66;;;16.79;100.00
30554;BME280;17335;50.720;7.452;2024-03-22T12:17:39;99231.31;;;16.77;100.00
30554;BME280;17335;50.720;7.452;2024-03-22T12:20:08;99238.97;;;16.73;100.00
30554;BME280;17335;50.720;7.452;2024-03-22T12:22:34;99223.09;;;16.70;100.00
30554;BME280;17335;50.720;7.452;2024-03-22T12:25:00;99233.91;;;16.40;100.00
30554;BME280;17335;50.720;7.452;2024-03-22T12:27:26;99225.03;;;16.46;100.00
30554;BME280;17335;50.720;7.452;2024-03-22T12:29:51;99221.31;;;16.47;100.00
30554;BME280;17335;50.720;7.452;2024-03-22T12:32:17;99213.75;;;16.58;100.00
30554;BME280;17335;50.720;7.452;2024-03-22T12:34:42;99206.06;;;16.46;100.00
30554;BME280;17335;50.720;7.452;2024-03-22T12:37:09;99205.91;;;16.63;100.00
30554;BME280;17335;50.720;7.452;2024-03-22T12:39:34;99187.38;;;16.81;100.00
30554;BME280;17335;50.720;7.452;2024-03-22T12:42:00;99185.31;;;16.83;100.00
30554;BME280;17335;50.720;7.452;2024-03-22T12:44:26;99189.31;;;16.73;100.00
30554;BME280;17335;50.720;7.452;2024-03-22T12:46:51;99189.59;;;16.78;100.00
30554;BME280;17335;50.720;7.452;2024-03-22T12:49:17;99186.06;;;16.77;100.00
30554;BME280;17335;50.720;7.452;2024-03-22T12:51:43;99192.25;;;16.71;100.00
30554;BME280;17335;50.720;7.452;2024-03-22T12:54:08;99180.47;;;16.64;100.00